Cameron, Montana
Current Conditions -  °F | °C
As of 12:53 AM on Tuesday 21 Oct 2014 (Local Time) from KDLN Reporting Station
Clear Clear  
Wind Chill: 51°   Ceiling: Unl
Heat Index: 51°   Visibility: 10mi
Dew Point: 33°   Wind: 5mph
Humidity: 50%   Direction: NA
Pressure: 29.81"   Gusts: NA
Location:  45.2°N, 111.68°W
Report Text: KDLN 210653Z AUTO VRB04KT 10SM CLR 11/01 A2981 RMK AO2 SLP053 T01060006 402390044
Loading
Personal Weather Stations






























Interactive Weather Map
Tropical Storm Tracking
New forecast layout! Learn more

10-Day Weather Forecast

Advertisements
Track Severe Weather on mobile